Time;durP1;ratioP1;P1;durP2;ratioP2;P2;SDS_P1;SDS_P2;PMS_P1;PMS_P2;Temp;Humidity;BMP_temperature;BMP_pressure;BME280_temperature;BME280_humidity;BME280_pressure;Samples;Min_cycle;Max_cycle;Signal;HPM_P1;HPM_P2
2021/11/30 00:01:57;;;;;;;1999.90;497.57;;;3.90;99.90;;;;;;5116959;27;20496;-75
2021/11/30 00:04:29;;;;;;;1725.50;717.57;;;4.00;99.90;;;;;;5116737;27;20454;-75
2021/11/30 00:06:58;;;;;;;1999.90;196.43;;;4.00;99.90;;;;;;5116623;27;20876;-75
2021/11/30 00:12:16;;;;;;;1999.90;999.90;;;4.00;99.90;;;;;;5116493;27;20464;-75
2021/11/30 00:14:48;;;;;;;1999.90;475.67;;;4.00;99.90;;;;;;5135290;27;20423;-75
2021/11/30 00:17:17;;;;;;;1999.90;999.90;;;4.00;99.90;;;;;;5116669;27;20859;-75
2021/11/30 00:19:46;;;;;;;1999.90;999.90;;;4.00;99.90;;;;;;5116505;27;20446;-75
2021/11/30 00:22:17;;;;;;;1999.90;790.13;;;4.00;99.90;;;;;;5116370;27;21009;-75
2021/11/30 00:24:45;;;;;;;1999.90;793.37;;;4.00;99.90;;;;;;5116214;27;20479;-75
2021/11/30 00:27:14;;;;;;;1999.90;464.87;;;4.00;99.90;;;;;;5134303;27;20453;-75
2021/11/30 00:29:43;;;;;;;1987.07;742.53;;;4.10;99.90;;;;;;5116204;27;20449;-75
2021/11/30 00:32:12;;;;;;;1999.90;599.83;;;4.10;99.90;;;;;;5134720;27;20463;-75
2021/11/30 00:34:41;;;;;;;1999.90;795.97;;;4.10;99.90;;;;;;5116346;27;20816;-75
2021/11/30 00:37:09;;;;;;;1999.90;538.80;;;4.10;99.90;;;;;;5134911;27;20509;-75
2021/11/30 00:39:38;;;;;;;1999.90;589.10;;;4.10;99.90;;;;;;5115954;28;20803;-75
2021/11/30 00:42:06;;;;;;;1999.90;587.90;;;4.10;99.90;;;;;;5134463;27;20560;-75
2021/11/30 00:44:36;;;;;;;1999.90;999.90;;;4.10;99.90;;;;;;5116089;28;20445;-75
2021/11/30 00:47:14;;;;;;;1999.90;562.60;;;4.20;99.90;;;;;;5135565;27;20442;-75
2021/11/30 00:49:45;;;;;;;1999.90;999.90;;;4.20;99.90;;;;;;5123099;28;20442;-75
2021/11/30 00:52:14;;;;;;;1999.90;999.90;;;4.20;99.90;;;;;;5128288;28;20512;-75
2021/11/30 00:54:43;;;;;;;1999.90;999.90;;;4.20;99.90;;;;;;5130107;27;20442;-75
2021/11/30 00:57:12;;;;;;;1999.90;999.90;;;4.20;99.90;;;;;;5136213;27;20498;-75
2021/11/30 00:59:43;;;;;;;1999.90;999.90;;;4.20;99.90;;;;;;5136360;27;20528;-75
2021/11/30 01:02:11;;;;;;;1999.90;999.90;;;4.20;99.90;;;;;;5136273;27;20576;-75
2021/11/30 01:04:40;;;;;;;1999.90;790.33;;;4.20;99.90;;;;;;5155344;27;20429;-75
2021/11/30 01:07:11;;;;;;;1999.90;999.90;;;4.20;99.90;;;;;;5154811;27;21001;-75
2021/11/30 01:09:40;;;;;;;1999.90;999.90;;;4.20;99.90;;;;;;5156280;27;20420;-75
2021/11/30 01:12:09;;;;;;;1999.90;737.83;;;4.20;99.90;;;;;;5136353;27;20469;-75
2021/11/30 01:14:37;;;;;;;1999.90;753.87;;;4.20;99.90;;;;;;5155152;27;20463;-75
2021/11/30 01:17:06;;;;;;;1999.90;999.90;;;4.20;99.90;;;;;;5154769;27;20502;-75
2021/11/30 01:19:34;;;;;;;1815.73;425.30;;;4.30;99.90;;;;;;5154913;27;20430;-75
2021/11/30 01:22:03;;;;;;;1648.77;696.17;;;4.30;99.90;;;;;;5155373;27;20566;-75
2021/11/30 01:24:32;;;;;;;1563.17;428.77;;;4.30;99.90;;;;;;5136419;27;20456;-75
2021/11/30 01:27:00;;;;;;;1999.90;999.90;;;4.30;99.90;;;;;;5155284;27;20464;-74
2021/11/30 01:29:28;;;;;;;1946.93;456.23;;;4.20;99.90;;;;;;5136172;27;20447;-75
2021/11/30 01:31:56;;;;;;;1999.90;707.97;;;4.30;99.90;;;;;;5136043;27;20512;-75
2021/11/30 01:34:24;;;;;;;1999.90;999.90;;;4.30;99.90;;;;;;5136196;27;20437;-75
2021/11/30 01:36:53;;;;;;;1999.90;678.10;;;4.30;99.90;;;;;;5137391;27;20447;-75
2021/11/30 01:39:22;;;;;;;1999.90;789.10;;;4.30;99.90;;;;;;5160595;27;20441;-75
2021/11/30 01:41:52;;;;;;;1999.90;999.90;;;4.30;99.90;;;;;;5170643;27;20516;-75
2021/11/30 01:44:35;;;;;;;1999.90;999.90;;;4.30;99.90;;;;;;5178728;27;20453;-75
2021/11/30 01:47:23;;;;;;;1999.90;683.47;;;4.30;99.90;;;;;;5165995;27;20512;-75
2021/11/30 01:49:51;;;;;;;1999.90;686.80;;;4.30;99.90;;;;;;5164933;27;20413;-75
2021/11/30 01:52:20;;;;;;;1999.90;657.70;;;4.30;99.90;;;;;;5166058;27;20453;-75
2021/11/30 01:54:51;;;;;;;1999.90;788.13;;;4.40;99.90;;;;;;5166309;27;20433;-76
2021/11/30 01:57:24;;;;;;;1999.90;999.90;;;4.40;99.90;;;;;;5165250;27;20425;-75
2021/11/30 01:59:54;;;;;;;1999.90;738.97;;;4.40;99.90;;;;;;5161864;27;20440;-74
2021/11/30 02:02:23;;;;;;;1999.90;999.90;;;4.40;99.90;;;;;;5146741;27;20556;-74
2021/11/30 02:04:51;;;;;;;1999.90;805.67;;;4.40;99.90;;;;;;5159246;27;20437;-75
2021/11/30 02:07:19;;;;;;;1999.90;706.27;;;4.40;99.90;;;;;;5139329;27;20449;-75
2021/11/30 02:09:47;;;;;;;1999.90;684.90;;;4.40;99.90;;;;;;5149800;27;20461;-75
2021/11/30 02:12:15;;;;;;;1999.90;999.90;;;4.40;99.90;;;;;;5132141;27;20901;-74
2021/11/30 02:14:46;;;;;;;1999.90;772.33;;;4.40;99.90;;;;;;5148990;27;20451;-75
2021/11/30 02:17:15;;;;;;;1999.90;738.27;;;4.40;99.90;;;;;;5138963;27;20429;-75
2021/11/30 02:19:49;;;;;;;1999.90;999.90;;;4.40;99.90;;;;;;5145498;27;20445;-75
2021/11/30 02:22:18;;;;;;;1999.90;999.90;;;4.40;99.90;;;;;;5124106;27;20466;-75
2021/11/30 02:24:46;;;;;;;1999.90;999.90;;;4.40;99.90;;;;;;5118703;27;20481;-75
2021/11/30 02:27:14;;;;;;;1999.90;999.90;;;4.40;99.90;;;;;;5118609;27;20475;-74
2021/11/30 02:29:42;;;;;;;1795.17;703.90;;;4.40;99.90;;;;;;5118523;27;20442;-74
2021/11/30 02:32:11;;;;;;;1999.90;589.67;;;4.30;99.90;;;;;;5118288;27;20469;-74
2021/11/30 02:34:39;;;;;;;1999.90;657.20;;;4.40;99.90;;;;;;5118523;27;20456;-75
2021/11/30 02:37:13;;;;;;;1999.90;654.03;;;4.30;99.90;;;;;;5119215;27;20835;-74
2021/11/30 02:39:44;;;;;;;1999.90;999.90;;;4.40;99.90;;;;;;5119149;27;20445;-75
2021/11/30 02:42:12;;;;;;;1999.90;999.90;;;4.30;99.90;;;;;;5118272;27;20593;-74
2021/11/30 02:44:40;;;;;;;1999.90;999.90;;;4.30;99.90;;;;;;5118294;27;20537;-75
2021/11/30 02:47:10;;;;;;;1999.90;999.90;;;4.30;99.90;;;;;;5118102;27;20808;-78
2021/11/30 02:49:40;;;;;;;1999.90;999.90;;;4.30;99.90;;;;;;5136145;27;20445;-75
2021/11/30 02:52:13;;;;;;;1999.90;535.37;;;4.30;99.90;;;;;;5136612;27;20450;-74
2021/11/30 02:54:43;;;;;;;1999.90;708.50;;;4.30;99.90;;;;;;5137017;27;20418;-74
2021/11/30 02:57:15;;;;;;;1999.90;603.97;;;4.30;99.90;;;;;;5117864;27;20537;-74
2021/11/30 02:59:45;;;;;;;1999.90;896.60;;;4.30;99.90;;;;;;5117762;27;20448;-74
2021/11/30 03:02:17;;;;;;;1999.90;797.10;;;4.30;99.90;;;;;;5136849;27;20500;-75
2021/11/30 03:04:47;;;;;;;1999.90;999.90;;;4.30;99.90;;;;;;5136615;27;20885;-75
2021/11/30 03:07:19;;;;;;;1999.90;999.90;;;4.30;99.90;;;;;;5117715;27;20530;-75
2021/11/30 03:09:48;;;;;;;1999.90;789.73;;;4.30;99.90;;;;;;5117813;27;20475;-75
2021/11/30 03:12:16;;;;;;;1999.90;781.57;;;4.30;99.90;;;;;;5136700;27;20495;-77
2021/11/30 03:14:44;;;;;;;1865.37;732.50;;;4.30;99.90;;;;;;5144183;27;20446;-75
2021/11/30 03:17:14;;;;;;;1999.90;672.93;;;4.30;99.90;;;;;;5129346;27;20449;-74
2021/11/30 03:19:42;;;;;;;1999.90;999.90;;;4.30;99.90;;;;;;5121880;27;20503;-74
2021/11/30 03:22:10;;;;;;;1999.90;750.37;;;4.30;99.90;;;;;;5137302;27;21006;-75
2021/11/30 03:24:40;;;;;;;1999.90;498.80;;;4.30;99.90;;;;;;5156591;27;20451;-75
2021/11/30 03:27:10;;;;;;;1999.90;779.87;;;4.30;99.90;;;;;;5157039;27;20444;-75
2021/11/30 03:29:38;;;;;;;1999.90;616.37;;;4.30;99.90;;;;;;5156298;27;20531;-75
2021/11/30 03:32:12;;;;;;;1999.90;999.90;;;4.30;99.90;;;;;;5137661;27;21065;-75
2021/11/30 03:34:40;;;;;;;1999.90;686.17;;;4.30;99.90;;;;;;5156265;27;20433;-75
2021/11/30 03:37:08;;;;;;;1913.60;488.83;;;4.30;99.90;;;;;;5137724;27;20441;-75
2021/11/30 03:39:37;;;;;;;1999.90;999.90;;;4.30;99.90;;;;;;5156237;27;20454;-75
2021/11/30 03:42:07;;;;;;;1999.90;536.10;;;4.30;99.90;;;;;;5155950;27;20475;-75
2021/11/30 03:44:35;;;;;;;1999.90;529.50;;;4.30;99.90;;;;;;5137644;27;20532;-74
2021/11/30 03:47:03;;;;;;;1999.90;999.90;;;4.40;99.90;;;;;;5137437;27;20893;-75
2021/11/30 03:49:31;;;;;;;1999.90;999.90;;;4.30;99.90;;;;;;5137693;27;21001;-75
2021/11/30 03:52:05;;;;;;;1999.90;542.53;;;4.40;99.90;;;;;;5156269;27;20499;-75
2021/11/30 03:54:33;;;;;;;1438.87;412.40;;;4.40;99.90;;;;;;5137640;27;20447;-75
2021/11/30 03:57:01;;;;;;;1999.90;999.90;;;4.40;99.90;;;;;;5137323;27;20448;-74
2021/11/30 03:59:31;;;;;;;1999.90;738.70;;;4.40;99.90;;;;;;5137265;27;20885;-74
2021/11/30 04:01:59;;;;;;;1999.90;999.90;;;4.40;99.90;;;;;;5155255;27;20822;-74
2021/11/30 04:04:31;;;;;;;1999.90;636.47;;;4.40;99.90;;;;;;5137226;27;20532;-75
2021/11/30 04:06:59;;;;;;;1999.90;337.47;;;4.40;99.90;;;;;;5137283;27;20850;-75
2021/11/30 04:09:27;;;;;;;1999.90;999.90;;;4.40;99.90;;;;;;5137322;27;20441;-75
2021/11/30 04:11:56;;;;;;;1999.90;533.07;;;4.40;99.90;;;;;;5155890;27;20546;-74
2021/11/30 04:14:27;;;;;;;1999.90;513.30;;;4.40;99.90;;;;;;5137419;27;20437;-74
2021/11/30 04:16:56;;;;;;;1999.90;999.90;;;4.50;99.90;;;;;;5150613;27;20602;-75
2021/11/30 04:19:24;;;;;;;1999.90;751.77;;;4.50;99.90;;;;;;5135212;27;20444;-75
2021/11/30 04:21:53;;;;;;;1999.90;474.80;;;4.50;99.90;;;;;;5116288;27;20506;-75
2021/11/30 04:24:21;;;;;;;1999.90;765.00;;;4.50;99.90;;;;;;5116310;27;20436;-74
2021/11/30 04:26:49;;;;;;;1999.90;649.03;;;4.50;99.90;;;;;;5134674;27;20434;-74
2021/11/30 04:29:17;;;;;;;1833.47;471.87;;;4.50;99.90;;;;;;5116823;27;20521;-74
2021/11/30 04:31:45;;;;;;;1999.90;487.13;;;4.50;99.90;;;;;;5116129;27;20843;-75
2021/11/30 04:34:17;;;;;;;1999.90;557.60;;;4.50;99.90;;;;;;5116470;28;20443;-74
2021/11/30 04:36:45;;;;;;;1971.50;508.50;;;4.50;99.90;;;;;;5135240;27;20421;-75
2021/11/30 04:39:14;;;;;;;1999.90;755.53;;;4.50;99.90;;;;;;5116171;27;20439;-75
2021/11/30 04:41:43;;;;;;;1897.27;485.30;;;4.50;99.90;;;;;;5116002;27;20504;-75
2021/11/30 04:44:12;;;;;;;1999.90;506.53;;;4.50;99.90;;;;;;5116095;28;20900;-76
2021/11/30 04:46:48;;;;;;;1795.27;388.87;;;4.50;99.90;;;;;;5134846;28;20434;-75
2021/11/30 04:49:28;;;;;;;1999.90;666.10;;;4.50;99.90;;;;;;5134751;28;20521;-75
2021/11/30 04:51:57;;;;;;;1999.90;673.93;;;4.60;99.90;;;;;;5115926;28;20493;-75
2021/11/30 04:54:25;;;;;;;1471.50;357.07;;;4.60;99.90;;;;;;5116142;28;20478;-75
2021/11/30 04:56:53;;;;;;;1999.90;999.90;;;4.60;99.90;;;;;;5116040;28;20442;-74
2021/11/30 04:59:23;;;;;;;1999.90;999.90;;;4.60;99.90;;;;;;5115954;28;20540;-74
2021/11/30 05:01:51;;;;;;;1999.90;531.93;;;4.60;99.90;;;;;;5115886;28;20458;-75
2021/11/30 05:04:21;;;;;;;1999.90;436.90;;;4.60;99.90;;;;;;5116016;28;20557;-74
2021/11/30 05:06:49;;;;;;;1999.90;408.80;;;4.70;99.90;;;;;;5116183;28;20448;-75
2021/11/30 05:09:18;;;;;;;1999.90;382.17;;;4.70;99.90;;;;;;5134526;28;20438;-75
2021/11/30 05:11:46;;;;;;;1933.30;379.73;;;4.70;99.90;;;;;;5116714;27;21071;-75
2021/11/30 05:14:14;;;;;;;1272.77;268.37;;;4.70;99.90;;;;;;5119977;27;20471;-75
2021/11/30 05:16:42;;;;;;;1999.90;484.23;;;4.70;99.90;;;;;;5139208;27;20438;-75
2021/11/30 05:19:10;;;;;;;1446.80;283.43;;;4.70;99.90;;;;;;5120107;27;20442;-75
2021/11/30 05:21:40;;;;;;;738.20;209.50;;;4.80;99.90;;;;;;5120025;27;20473;-75
2021/11/30 05:24:10;;;;;;;1999.90;593.40;;;4.80;99.90;;;;;;5131208;27;20572;-75
2021/11/30 05:26:39;;;;;;;1999.90;506.37;;;4.80;99.90;;;;;;5129609;27;20551;-75
2021/11/30 05:29:08;;;;;;;1999.90;826.77;;;4.80;99.90;;;;;;5144942;27;20440;-74
2021/11/30 05:31:36;;;;;;;339.73;165.30;;;4.80;99.90;;;;;;5129115;27;20534;-74
2021/11/30 05:34:05;;;;;;;1999.90;671.50;;;4.80;99.90;;;;;;5155039;27;20964;-75
2021/11/30 05:36:33;;;;;;;539.93;217.47;;;4.80;99.90;;;;;;5140127;27;20445;-75
2021/11/30 05:39:04;;;;;;;400.67;101.87;;;4.90;99.90;;;;;;5158481;27;20479;-75
2021/11/30 05:41:33;;;;;;;1641.33;338.63;;;5.00;99.90;;;;;;5158957;27;20414;-74
2021/11/30 05:44:01;;;;;;;531.23;176.23;;;4.90;99.90;;;;;;5140133;27;20475;-75
2021/11/30 05:46:31;;;;;;;1640.83;350.43;;;5.00;99.90;;;;;;5158339;27;20813;-74
2021/11/30 05:48:59;;;;;;;117.17;80.47;;;5.00;99.90;;;;;;5158308;27;21037;-75
2021/11/30 05:51:27;;;;;;;1999.90;538.50;;;5.00;99.90;;;;;;5158176;27;20445;-75
2021/11/30 05:53:55;;;;;;;130.17;105.40;;;5.10;99.90;;;;;;5158136;27;20429;-74
2021/11/30 05:56:25;;;;;;;841.40;209.57;;;5.00;99.90;;;;;;5139575;27;20575;-74
2021/11/30 05:58:53;;;;;;;425.00;158.00;;;5.10;99.90;;;;;;5158217;27;20430;-74
2021/11/30 06:01:25;;;;;;;1663.77;251.73;;;5.10;99.90;;;;;;5158378;27;20448;-74
2021/11/30 06:03:58;;;;;;;175.77;87.57;;;5.10;99.90;;;;;;5158430;27;20835;-75
2021/11/30 06:06:28;;;;;;;412.93;116.73;;;5.10;99.90;;;;;;5141483;27;20434;-75
2021/11/30 06:08:57;;;;;;;141.90;56.03;;;5.20;99.90;;;;;;5158423;27;20455;-74
2021/11/30 06:11:27;;;;;;;157.87;45.20;;;5.20;99.90;;;;;;5158169;27;20430;-74
2021/11/30 06:13:58;;;;;;;120.93;59.57;;;5.20;99.90;;;;;;5139489;27;20430;-74
2021/11/30 06:16:27;;;;;;;111.60;51.73;;;5.30;99.90;;;;;;5139518;27;20441;-74
2021/11/30 06:18:56;;;;;;;136.10;45.30;;;5.30;99.90;;;;;;5157767;27;20528;-75
2021/11/30 06:21:24;;;;;;;102.57;79.23;;;5.30;99.90;;;;;;5139086;27;20442;-74
2021/11/30 06:23:52;;;;;;;102.93;70.60;;;5.40;99.90;;;;;;5138295;27;20461;-74
2021/11/30 06:26:21;;;;;;;137.53;38.73;;;5.40;99.90;;;;;;5139012;27;20445;-74
2021/11/30 06:28:50;;;;;;;83.73;25.97;;;5.40;99.90;;;;;;5148555;27;20474;-75
2021/11/30 06:31:19;;;;;;;149.83;48.60;;;5.40;99.90;;;;;;5124697;27;20441;-74
2021/11/30 06:33:47;;;;;;;349.90;49.87;;;5.50;99.90;;;;;;5151581;27;20435;-74
2021/11/30 06:36:15;;;;;;;152.67;60.40;;;5.50;99.90;;;;;;5148208;27;20458;-74
2021/11/30 06:38:44;;;;;;;148.90;38.07;;;5.60;99.90;;;;;;5138968;27;20442;-75
2021/11/30 06:41:12;;;;;;;152.03;36.67;;;5.60;99.90;;;;;;5138833;27;20536;-75
2021/11/30 06:43:40;;;;;;;168.83;37.47;;;5.60;99.90;;;;;;5157544;27;20462;-74
2021/11/30 06:46:09;;;;;;;130.70;36.60;;;5.60;99.90;;;;;;5158209;27;20432;-75
2021/11/30 06:48:38;;;;;;;237.30;82.20;;;5.60;99.90;;;;;;5158616;27;20437;-75
2021/11/30 06:51:06;;;;;;;157.00;39.37;;;5.70;99.90;;;;;;5153856;27;20441;-74
2021/11/30 06:53:35;;;;;;;159.53;36.67;;;5.70;99.90;;;;;;5156422;27;20559;-74
2021/11/30 06:56:04;;;;;;;236.67;43.27;;;5.70;99.90;;;;;;5171065;27;20502;-74
2021/11/30 06:58:32;;;;;;;161.67;34.17;;;5.80;99.90;;;;;;5152789;27;20497;-75
2021/11/30 07:01:01;;;;;;;261.63;33.73;;;5.80;99.90;;;;;;5149981;27;20477;-74
2021/11/30 07:03:31;;;;;;;151.97;28.50;;;5.80;99.90;;;;;;5167988;27;20473;-74
2021/11/30 07:06:03;;;;;;;104.20;28.80;;;5.80;99.90;;;;;;5148424;27;20813;-75
2021/11/30 07:08:55;;;;;;;161.37;23.77;;;5.90;99.90;;;;;;5166436;27;20414;-75
2021/11/30 07:11:36;;;;;;;220.53;31.20;;;5.90;99.90;;;;;;5147292;27;20437;-75
2021/11/30 07:14:05;;;;;;;153.03;24.00;;;6.00;99.90;;;;;;5146511;27;20434;-74
2021/11/30 07:16:33;;;;;;;281.77;39.67;;;6.00;99.90;;;;;;5140628;27;20456;-75
2021/11/30 07:19:05;;;;;;;235.03;39.23;;;6.00;99.90;;;;;;5157419;27;20445;-74
2021/11/30 07:21:33;;;;;;;159.97;26.03;;;6.00;99.90;;;;;;5156697;27;20433;-74
2021/11/30 07:24:02;;;;;;;280.10;48.87;;;6.10;99.90;;;;;;5137895;27;20465;-74
2021/11/30 07:26:30;;;;;;;86.23;20.33;;;6.10;99.90;;;;;;5138834;27;20480;-75
2021/11/30 07:28:59;;;;;;;243.83;28.13;;;6.10;99.90;;;;;;5156804;27;20473;-75
2021/11/30 07:31:29;;;;;;;193.00;25.03;;;6.10;99.90;;;;;;5137627;27;20450;-75
2021/11/30 07:34:00;;;;;;;140.47;24.23;;;6.20;99.90;;;;;;5138098;27;20442;-74
2021/11/30 07:36:30;;;;;;;160.27;24.53;;;6.20;99.90;;;;;;5137749;27;20536;-74
2021/11/30 07:38:58;;;;;;;67.13;18.53;;;6.20;99.90;;;;;;5156103;27;20908;-74
2021/11/30 07:41:27;;;;;;;40.93;15.10;;;6.30;99.90;;;;;;5137574;27;20430;-75
2021/11/30 07:43:55;;;;;;;169.63;29.40;;;6.30;99.90;;;;;;5137544;27;20465;-74
2021/11/30 07:46:23;;;;;;;147.53;18.60;;;6.40;99.90;;;;;;5137464;27;20484;-74
2021/11/30 07:48:51;;;;;;;91.10;23.77;;;6.40;99.90;;;;;;5137297;27;20449;-75
2021/11/30 07:51:19;;;;;;;262.63;32.60;;;6.40;99.90;;;;;;5156014;27;20520;-75
2021/11/30 07:53:50;;;;;;;219.33;34.30;;;6.50;99.90;;;;;;5156193;27;20448;-74
2021/11/30 07:56:18;;;;;;;180.27;34.23;;;6.50;99.90;;;;;;5156808;27;20406;-75
2021/11/30 07:58:46;;;;;;;97.03;19.83;;;6.50;99.90;;;;;;5137659;27;20507;-75
2021/11/30 08:01:16;;;;;;;268.60;29.03;;;6.60;99.90;;;;;;5137841;27;20580;-74
2021/11/30 08:03:44;;;;;;;224.97;30.60;;;6.60;99.90;;;;;;5137156;27;21016;-74
2021/11/30 08:06:13;;;;;;;233.57;34.50;;;6.60;99.90;;;;;;5137586;27;20824;-74
2021/11/30 08:08:41;;;;;;;88.70;21.30;;;6.70;99.90;;;;;;5155631;27;20430;-74
2021/11/30 08:11:11;;;;;;;167.73;26.93;;;6.70;99.90;;;;;;5155610;27;20461;-75
2021/11/30 08:13:40;;;;;;;151.70;23.87;;;6.70;99.90;;;;;;5155563;27;20456;-75
2021/11/30 08:16:11;;;;;;;168.73;25.57;;;6.80;99.90;;;;;;5155740;27;20497;-75
2021/11/30 08:18:39;;;;;;;226.27;22.57;;;6.80;99.90;;;;;;5137222;27;20437;-75
2021/11/30 08:21:08;;;;;;;182.30;24.87;;;6.80;99.90;;;;;;5136921;27;20444;-75
2021/11/30 08:23:37;;;;;;;279.93;39.77;;;6.80;99.90;;;;;;5136848;27;20466;-74
2021/11/30 08:26:05;;;;;;;92.43;16.90;;;6.90;99.90;;;;;;5136926;27;20480;-74
2021/11/30 08:28:34;;;;;;;93.67;18.43;;;6.90;99.90;;;;;;5136756;27;20450;-74
2021/11/30 08:31:02;;;;;;;149.43;25.90;;;6.90;99.90;;;;;;5155185;27;20445;-75
2021/11/30 08:33:31;;;;;;;197.47;30.87;;;6.90;99.90;;;;;;5155568;27;20457;-74
2021/11/30 08:35:59;;;;;;;131.33;20.27;;;7.00;99.90;;;;;;5155531;27;20421;-74
2021/11/30 08:38:27;;;;;;;197.43;30.00;;;7.00;99.90;;;;;;5155485;27;20532;-74
2021/11/30 08:40:57;;;;;;;121.73;25.13;;;7.00;99.90;;;;;;5155725;27;20438;-75
2021/11/30 08:43:26;;;;;;;249.37;24.30;;;7.00;99.90;;;;;;5155406;27;20542;-74
2021/11/30 08:45:56;;;;;;;278.30;26.00;;;7.10;99.90;;;;;;5154891;27;20905;-74
2021/11/30 08:48:25;;;;;;;67.50;12.70;;;7.10;99.90;;;;;;5155833;27;20433;-74
2021/11/30 08:50:54;;;;;;;205.33;24.00;;;7.10;99.90;;;;;;5155180;27;20429;-74
2021/11/30 08:53:23;;;;;;;132.23;27.43;;;7.10;99.90;;;;;;5136251;27;20466;-74
2021/11/30 08:55:51;;;;;;;230.53;31.03;;;7.20;99.90;;;;;;5136542;27;20493;-74
2021/11/30 08:58:20;;;;;;;215.80;25.77;;;7.20;99.90;;;;;;5155624;27;20434;-75
2021/11/30 09:00:49;;;;;;;222.43;28.47;;;7.20;99.90;;;;;;5155397;27;20451;-74
2021/11/30 09:03:18;;;;;;;185.63;21.27;;;7.30;99.90;;;;;;5136622;27;20883;-74
2021/11/30 09:05:47;;;;;;;233.13;28.23;;;7.30;99.90;;;;;;5136456;27;20493;-74
2021/11/30 09:08:16;;;;;;;264.50;30.47;;;7.30;99.90;;;;;;5136400;27;20442;-74
2021/11/30 09:10:44;;;;;;;146.97;29.33;;;7.40;99.90;;;;;;5136615;27;20441;-74
2021/11/30 09:13:12;;;;;;;255.77;24.70;;;7.40;99.90;;;;;;5155367;27;20478;-74
2021/11/30 09:15:40;;;;;;;167.30;20.53;;;7.40;99.90;;;;;;5157118;27;20449;-74
2021/11/30 09:18:09;;;;;;;282.43;32.77;;;7.40;99.90;;;;;;5136612;27;20882;-74
2021/11/30 09:20:38;;;;;;;301.47;38.13;;;7.50;99.90;;;;;;5136434;27;20435;-74
2021/11/30 09:23:06;;;;;;;283.70;36.90;;;7.50;99.90;;;;;;5154837;27;20453;-74
2021/11/30 09:25:35;;;;;;;190.37;25.90;;;7.50;99.90;;;;;;5136134;27;20472;-74
2021/11/30 09:28:04;;;;;;;221.53;27.27;;;7.60;99.90;;;;;;5136361;27;20442;-74
2021/11/30 09:30:35;;;;;;;135.40;23.53;;;7.60;99.90;;;;;;5154993;27;20447;-74
2021/11/30 09:33:03;;;;;;;161.60;19.40;;;7.60;99.90;;;;;;5098277;28;20567;-74
2021/11/30 09:35:32;;;;;;;304.37;34.97;;;7.60;99.90;;;;;;5098550;28;20441;-74
2021/11/30 09:38:02;;;;;;;232.63;26.03;;;7.60;99.90;;;;;;5030556;28;20439;-74
2021/11/30 09:40:32;;;;;;;264.73;34.33;;;7.70;99.90;;;;;;5098838;28;20479;-74
2021/11/30 09:43:21;;;;;;;306.00;35.93;;;7.70;99.90;;;;;;5030477;28;20480;-74
2021/11/30 09:45:49;;;;;;;176.50;23.23;;;7.70;99.90;;;;;;5030299;28;20468;-74
2021/11/30 09:48:18;;;;;;;171.90;24.07;;;7.80;99.90;;;;;;5098372;28;20505;-74
2021/11/30 09:50:47;;;;;;;386.77;37.67;;;7.80;99.90;;;;;;5030229;28;20436;-74
2021/11/30 09:53:17;;;;;;;440.70;54.67;;;7.80;99.90;;;;;;5030071;28;20467;-74
2021/11/30 09:55:47;;;;;;;370.07;40.40;;;7.80;99.90;;;;;;5030499;28;20428;-75
2021/11/30 09:58:18;;;;;;;194.77;37.80;;;7.90;99.90;;;;;;5029937;28;20419;-74
2021/11/30 10:00:48;;;;;;;264.37;35.80;;;7.80;99.90;;;;;;5033389;28;20473;-75
2021/11/30 10:03:18;;;;;;;263.87;45.60;;;7.90;99.90;;;;;;5033128;28;20456;-74
2021/11/30 10:05:46;;;;;;;301.77;45.87;;;7.90;99.90;;;;;;5101834;28;20520;-74
2021/11/30 10:08:28;;;;;;;278.23;39.23;;;7.90;99.90;;;;;;5101476;28;20451;-75
2021/11/30 10:11:10;;;;;;;303.80;38.33;;;8.00;99.90;;;;;;5102071;28;20465;-74
2021/11/30 10:13:40;;;;;;;316.23;47.13;;;8.00;99.90;;;;;;5101558;28;20992;-74
2021/11/30 10:16:09;;;;;;;287.10;49.57;;;8.10;99.90;;;;;;5101395;28;21045;-74
2021/11/30 10:18:40;;;;;;;545.03;65.13;;;8.10;99.90;;;;;;5101162;28;20484;-74
2021/11/30 10:21:21;;;;;;;344.07;57.73;;;8.10;99.90;;;;;;5101310;28;20442;-74
2021/11/30 10:23:54;;;;;;;177.57;26.37;;;8.20;99.90;;;;;;5101336;28;20436;-75
2021/11/30 10:26:24;;;;;;;173.03;24.10;;;8.20;99.90;;;;;;5033029;28;21013;-75
2021/11/30 10:28:57;;;;;;;459.70;75.20;;;8.20;99.90;;;;;;5101499;28;20533;-74
2021/11/30 10:31:31;;;;;;;383.83;85.67;;;8.20;99.90;;;;;;5073852;27;20459;-74
2021/11/30 10:34:11;;;;;;;466.33;74.90;;;8.20;99.90;;;;;;5139278;27;20749;-75
2021/11/30 10:36:48;;;;;;;130.50;39.73;;;8.20;99.90;;;;;;5139114;27;20433;-74
2021/11/30 10:39:19;;;;;;;415.20;96.40;;;8.20;99.90;;;;;;5139095;27;20958;-74
2021/11/30 10:41:48;;;;;;;974.40;160.07;;;8.20;99.90;;;;;;5157559;27;20985;-75
2021/11/30 10:44:17;;;;;;;262.50;67.97;;;8.20;99.90;;;;;;5139591;27;20445;-74
2021/11/30 10:46:45;;;;;;;435.03;109.80;;;8.20;99.90;;;;;;5138728;27;20514;-74
2021/11/30 10:49:13;;;;;;;108.47;28.57;;;8.20;99.90;;;;;;5157426;27;20429;-75
2021/11/30 10:51:44;;;;;;;496.07;68.13;;;8.20;99.90;;;;;;5138894;27;21091;-75
2021/11/30 10:54:12;;;;;;;421.90;91.60;;;8.10;99.90;;;;;;5157336;27;20515;-75
2021/11/30 10:56:42;;;;;;;560.43;87.27;;;8.00;99.90;;;;;;5157532;27;20429;-75
2021/11/30 10:59:21;;;;;;;350.07;27.47;;;8.00;99.90;;;;;;5138682;27;20440;-74
2021/11/30 11:01:50;;;;;;;120.63;31.70;;;7.90;99.90;;;;;;5138611;27;21101;-75
2021/11/30 11:04:29;;;;;;;499.20;60.03;;;7.90;99.90;;;;;;5138690;27;20973;-74
2021/11/30 11:07:08;;;;;;;290.07;49.40;;;7.80;99.90;;;;;;5138606;27;20563;-74
2021/11/30 11:09:42;;;;;;;465.60;60.47;;;7.80;99.90;;;;;;5138175;27;20439;-75
2021/11/30 11:12:12;;;;;;;404.53;50.70;;;7.80;99.90;;;;;;5138382;27;20471;-74
2021/11/30 11:14:47;;;;;;;406.93;60.17;;;7.80;99.90;;;;;;5138294;27;20506;-74
2021/11/30 11:17:28;;;;;;;485.07;70.47;;;7.80;99.90;;;;;;5156715;27;20930;-75
2021/11/30 11:19:57;;;;;;;524.37;82.17;;;7.80;99.90;;;;;;5138314;27;20527;-74
2021/11/30 11:22:26;;;;;;;359.73;79.57;;;7.80;99.90;;;;;;5137942;27;20510;-74
2021/11/30 11:24:57;;;;;;;299.10;49.83;;;7.80;99.90;;;;;;5156962;27;20796;-74
2021/11/30 11:27:32;;;;;;;491.33;88.07;;;7.80;99.90;;;;;;5138040;27;20556;-74
2021/11/30 11:30:01;;;;;;;234.07;53.97;;;7.90;99.90;;;;;;5156865;27;20776;-77
2021/11/30 11:32:29;;;;;;;587.27;57.83;;;7.90;99.90;;;;;;5137985;27;20527;-74
2021/11/30 11:34:58;;;;;;;337.63;39.33;;;7.90;99.90;;;;;;5156837;27;20559;-74
2021/11/30 11:37:27;;;;;;;291.30;44.50;;;8.00;99.90;;;;;;5138377;27;20815;-74
2021/11/30 11:39:55;;;;;;;374.27;77.63;;;8.00;99.90;;;;;;5156634;27;20435;-74
2021/11/30 11:42:23;;;;;;;241.17;30.40;;;8.00;99.90;;;;;;5156809;27;20457;-75
2021/11/30 11:44:55;;;;;;;364.80;80.60;;;8.00;99.90;;;;;;5156255;27;20439;-74
2021/11/30 11:47:26;;;;;;;219.07;66.13;;;8.00;99.90;;;;;;5156650;27;20456;-75
2021/11/30 11:49:56;;;;;;;337.47;72.30;;;8.00;99.90;;;;;;5138347;27;20436;-74
2021/11/30 11:52:27;;;;;;;493.27;86.10;;;8.10;99.90;;;;;;5140464;27;21016;-74
2021/11/30 11:55:02;;;;;;;381.87;80.83;;;8.10;99.90;;;;;;5148178;27;20510;-75
2021/11/30 11:57:31;;;;;;;625.80;116.13;;;8.10;99.90;;;;;;5150402;27;20493;-75
2021/11/30 12:00:17;;;;;;;126.37;52.70;;;8.10;99.90;;;;;;5150362;27;21062;-74
2021/11/30 12:02:51;;;;;;;28.40;18.97;;;8.10;99.90;;;;;;5146430;27;20486;-75
2021/11/30 12:05:40;;;;;;;180.10;38.37;;;8.10;99.90;;;;;;5147640;27;20447;-74
2021/11/30 12:08:18;;;;;;;393.10;100.07;;;8.20;99.90;;;;;;5161312;27;20478;-74
2021/11/30 12:10:47;;;;;;;268.60;68.80;;;8.20;99.90;;;;;;5170658;27;20432;-75
2021/11/30 12:13:20;;;;;;;273.30;54.67;;;8.20;99.90;;;;;;5178436;27;20467;-74
2021/11/30 12:16:03;;;;;;;398.53;94.13;;;8.20;99.90;;;;;;5154669;27;20516;-74
2021/11/30 12:18:33;;;;;;;427.23;58.63;;;8.20;99.90;;;;;;5165949;27;20432;-75
2021/11/30 12:21:13;;;;;;;276.23;70.27;;;8.20;99.90;;;;;;5155705;27;20789;-74
2021/11/30 12:23:42;;;;;;;182.47;57.83;;;8.20;99.90;;;;;;5137538;27;20912;-75
2021/11/30 12:26:35;;;;;;;1746.40;254.03;;;8.30;99.90;;;;;;5137902;27;20426;-74
2021/11/30 12:29:06;;;;;;;419.87;81.13;;;8.30;99.90;;;;;;5155673;27;20424;-75
2021/11/30 12:31:37;;;;;;;459.63;97.07;;;8.30;99.90;;;;;;5137036;27;20459;-74
2021/11/30 12:34:07;;;;;;;472.37;95.17;;;8.30;99.90;;;;;;5137194;27;20441;-75
2021/11/30 12:36:37;;;;;;;139.00;53.93;;;8.30;99.90;;;;;;5136794;27;20458;-75